Time;durP1;ratioP1;P1;durP2;ratioP2;P2;SDS_P1;SDS_P2;PMS_P1;PMS_P2;Temp;Humidity;BMP_temperature;BMP_pressure;BME280_temperature;BME280_humidity;BME280_pressure;Samples;Min_cycle;Max_cycle;Signal;HPM_P1;HPM_P2
2023/08/15 00:01:01;;;;;;;11.55;5.93;;;22.30;99.90;;;;;;4999652;28;20027;-73
2023/08/15 00:03:27;;;;;;;7.93;5.45;;;22.30;99.90;;;;;;5001455;28;20681;-73
2023/08/15 00:05:52;;;;;;;7.78;5.55;;;22.30;99.90;;;;;;5002421;28;20476;-73
2023/08/15 00:08:18;;;;;;;11.88;5.78;;;22.20;99.90;;;;;;5000479;28;20508;-72
2023/08/15 00:10:44;;;;;;;5.65;5.10;;;22.20;99.90;;;;;;5009698;28;20030;-78
2023/08/15 00:13:09;;;;;;;8.77;5.78;;;22.20;99.90;;;;;;5007455;28;20065;-78
2023/08/15 00:15:35;;;;;;;9.32;5.88;;;22.10;99.90;;;;;;5004848;28;20080;-77
2023/08/15 00:18:01;;;;;;;13.63;5.70;;;22.10;99.90;;;;;;5001828;28;20058;-77
2023/08/15 00:20:27;;;;;;;10.73;5.95;;;22.10;99.90;;;;;;5015198;28;20033;-77
2023/08/15 00:22:52;;;;;;;10.82;5.78;;;22.10;99.90;;;;;;5015084;28;20031;-79
2023/08/15 00:25:18;;;;;;;8.60;4.97;;;22.00;99.90;;;;;;5000581;28;20244;-78
2023/08/15 00:27:44;;;;;;;6.60;4.75;;;22.00;99.90;;;;;;5018706;28;20457;-78
2023/08/15 00:30:10;;;;;;;10.70;5.40;;;22.00;99.90;;;;;;5019259;28;20026;-78
2023/08/15 00:32:35;;;;;;;9.73;4.97;;;22.00;99.90;;;;;;5001741;28;20496;-77
2023/08/15 00:35:03;;;;;;;8.00;5.25;;;22.00;99.90;;;;;;5018835;28;20029;-77
2023/08/15 00:37:29;;;;;;;9.30;6.00;;;22.00;99.90;;;;;;5017857;28;20018;-77
2023/08/15 00:40:04;;;;;;;8.48;4.90;;;22.00;99.90;;;;;;5006863;28;20038;-77
2023/08/15 00:42:30;;;;;;;11.10;5.60;;;22.00;99.90;;;;;;4987345;28;20037;-77
2023/08/15 00:45:08;;;;;;;8.75;5.28;;;21.90;99.90;;;;;;5003829;28;20484;-77
2023/08/15 00:47:34;;;;;;;7.57;5.15;;;21.90;99.90;;;;;;5005039;28;20045;-75
2023/08/15 00:50:01;;;;;;;8.57;4.95;;;21.90;99.90;;;;;;5005090;28;20513;-75
2023/08/15 00:52:27;;;;;;;7.50;4.55;;;21.90;99.90;;;;;;4989542;28;20461;-77
2023/08/15 00:54:54;;;;;;;11.93;5.55;;;21.90;99.90;;;;;;5012801;28;20022;-77
2023/08/15 00:57:21;;;;;;;8.02;4.90;;;21.90;99.90;;;;;;5003686;28;20022;-77
2023/08/15 00:59:47;;;;;;;7.90;5.32;;;21.90;99.90;;;;;;4994379;28;20681;-78
2023/08/15 01:02:22;;;;;;;8.65;5.00;;;21.90;99.90;;;;;;4995488;28;20069;-76
2023/08/15 01:04:49;;;;;;;6.30;5.30;;;21.90;99.90;;;;;;4990388;28;20113;-77
2023/08/15 01:07:17;;;;;;;8.80;5.35;;;21.90;99.90;;;;;;4991321;28;20088;-77
2023/08/15 01:09:44;;;;;;;7.00;4.85;;;21.90;99.90;;;;;;5007982;28;20058;-79
2023/08/15 01:12:31;;;;;;;11.27;5.13;;;21.90;99.90;;;;;;5012913;28;20084;-78
2023/08/15 01:15:12;;;;;;;10.45;5.43;;;21.80;99.90;;;;;;4990079;28;20299;-78
2023/08/15 01:17:43;;;;;;;7.70;4.80;;;21.80;99.90;;;;;;5008829;28;20028;-78
2023/08/15 01:20:14;;;;;;;8.98;5.30;;;21.70;99.90;;;;;;5005316;28;20030;-78
2023/08/15 01:22:44;;;;;;;6.93;5.43;;;21.70;99.90;;;;;;4997970;28;20510;-78
2023/08/15 01:25:10;;;;;;;6.55;5.22;;;21.70;99.90;;;;;;5012033;28;20018;-77
2023/08/15 01:27:36;;;;;;;8.85;5.50;;;21.60;99.90;;;;;;4996798;28;20013;-77
2023/08/15 01:30:01;;;;;;;7.43;5.15;;;21.60;99.90;;;;;;5010720;28;20025;-76
2023/08/15 01:32:34;;;;;;;6.63;5.40;;;21.60;99.90;;;;;;5011836;28;20026;-79
2023/08/15 01:35:09;;;;;;;10.90;5.07;;;21.60;99.90;;;;;;5018165;28;20036;-77
2023/08/15 01:37:37;;;;;;;11.43;5.18;;;21.60;99.90;;;;;;5019257;28;20459;-76
2023/08/15 01:40:10;;;;;;;6.85;5.50;;;21.60;99.90;;;;;;5013236;28;20029;-76
2023/08/15 01:42:36;;;;;;;8.30;5.05;;;21.60;99.90;;;;;;4994538;28;20037;-76
2023/08/15 01:45:07;;;;;;;6.60;4.85;;;21.60;99.90;;;;;;5002212;28;20034;-77
2023/08/15 01:47:36;;;;;;;6.60;4.28;;;21.60;99.90;;;;;;5011106;28;20392;-75
2023/08/15 01:50:01;;;;;;;9.88;5.38;;;21.60;99.90;;;;;;4986349;28;20125;-76
2023/08/15 01:52:30;;;;;;;5.40;4.80;;;21.50;99.90;;;;;;5008484;28;20117;-77
2023/08/15 01:54:55;;;;;;;8.55;4.53;;;21.60;99.90;;;;;;5014951;28;20053;-77
2023/08/15 01:57:21;;;;;;;5.68;5.07;;;21.60;99.90;;;;;;4998010;28;20323;-77
2023/08/15 01:59:47;;;;;;;6.55;5.00;;;21.60;99.90;;;;;;5016853;28;20037;-78
2023/08/15 02:02:12;;;;;;;7.57;5.00;;;21.60;99.90;;;;;;5018094;28;20370;-79
2023/08/15 02:04:38;;;;;;;8.93;4.82;;;21.60;99.90;;;;;;5016060;28;20026;-77
2023/08/15 02:07:03;;;;;;;8.00;5.50;;;21.50;99.90;;;;;;4996744;28;20030;-76
2023/08/15 02:09:29;;;;;;;10.10;5.82;;;21.50;99.90;;;;;;5012744;28;20049;-76
2023/08/15 02:11:57;;;;;;;10.73;6.32;;;21.50;99.90;;;;;;5013082;28;20478;-77
2023/08/15 02:14:23;;;;;;;13.05;6.15;;;21.50;99.90;;;;;;5012814;28;20392;-74
2023/08/15 02:16:49;;;;;;;7.43;5.63;;;21.40;99.90;;;;;;5008615;28;20026;-77
2023/08/15 02:19:14;;;;;;;7.80;5.70;;;21.40;99.90;;;;;;5006922;28;20037;-77
2023/08/15 02:21:40;;;;;;;8.70;5.50;;;21.40;99.90;;;;;;5014270;28;20030;-77
2023/08/15 02:24:06;;;;;;;9.18;4.97;;;21.30;99.90;;;;;;4997047;28;20025;-76
2023/08/15 02:26:31;;;;;;;11.93;5.82;;;21.40;99.90;;;;;;5014943;28;20128;-78
2023/08/15 02:29:00;;;;;;;9.13;5.18;;;21.30;99.90;;;;;;4997653;28;20548;-78
2023/08/15 02:31:26;;;;;;;7.05;5.10;;;21.30;99.90;;;;;;5015668;28;20058;-76
2023/08/15 02:33:52;;;;;;;8.63;5.07;;;21.20;99.90;;;;;;5018968;28;20117;-76
2023/08/15 02:36:17;;;;;;;9.63;5.32;;;21.20;99.90;;;;;;5018956;28;20050;-76
2023/08/15 02:38:46;;;;;;;11.38;5.45;;;21.20;99.90;;;;;;5019076;28;20037;-78
2023/08/15 02:41:12;;;;;;;6.95;5.22;;;21.10;99.90;;;;;;5013075;28;20111;-77
2023/08/15 02:43:37;;;;;;;6.03;5.03;;;21.10;99.90;;;;;;5006244;28;20046;-77
2023/08/15 02:46:03;;;;;;;8.48;5.50;;;21.10;99.90;;;;;;4998424;28;20121;-77
2023/08/15 02:48:28;;;;;;;8.95;6.18;;;21.00;99.90;;;;;;5014613;28;20022;-76
2023/08/15 02:50:54;;;;;;;7.53;4.60;;;21.00;99.90;;;;;;5015876;28;20476;-77
2023/08/15 02:53:20;;;;;;;8.38;5.30;;;21.00;99.90;;;;;;5013750;28;20028;-77
2023/08/15 02:55:50;;;;;;;6.20;5.00;;;21.00;99.90;;;;;;4992966;28;20029;-76
2023/08/15 02:58:16;;;;;;;15.45;6.85;;;21.00;99.90;;;;;;5009881;28;20038;-76
2023/08/15 03:00:45;;;;;;;8.73;5.47;;;20.90;99.90;;;;;;4992000;28;20035;-77
2023/08/15 03:03:10;;;;;;;8.75;5.75;;;20.90;99.90;;;;;;5007196;28;20030;-77
2023/08/15 03:05:39;;;;;;;8.70;5.13;;;20.90;99.90;;;;;;5007538;28;20093;-77
2023/08/15 03:08:04;;;;;;;6.93;5.57;;;20.90;99.90;;;;;;4985809;28;20050;-77
2023/08/15 03:10:32;;;;;;;6.80;5.15;;;20.90;99.90;;;;;;4996686;28;20061;-76
2023/08/15 03:12:58;;;;;;;7.60;5.85;;;20.80;99.90;;;;;;5013367;28;20034;-77
2023/08/15 03:15:24;;;;;;;7.88;5.72;;;20.80;99.90;;;;;;5015425;28;20545;-77
2023/08/15 03:17:51;;;;;;;6.65;5.72;;;20.80;99.90;;;;;;5000079;28;20095;-76
2023/08/15 03:20:17;;;;;;;7.88;5.55;;;20.80;99.90;;;;;;5015869;28;20149;-78
2023/08/15 03:22:43;;;;;;;9.35;6.10;;;20.80;99.90;;;;;;5006555;28;20126;-77
2023/08/15 03:25:12;;;;;;;6.60;5.68;;;20.80;99.90;;;;;;5011582;28;20022;-77
2023/08/15 03:27:40;;;;;;;9.05;5.70;;;20.80;99.90;;;;;;5004694;28;20034;-78
2023/08/15 03:30:06;;;;;;;8.38;5.32;;;20.70;99.90;;;;;;5005411;28;20487;-79
2023/08/15 03:32:32;;;;;;;8.07;6.00;;;20.70;99.90;;;;;;5019066;28;20034;-76
2023/08/15 03:34:58;;;;;;;7.47;5.28;;;20.70;99.90;;;;;;4999357;28;20045;-78
2023/08/15 03:37:29;;;;;;;13.68;6.13;;;20.70;99.90;;;;;;5007162;28;20030;-78
2023/08/15 03:39:55;;;;;;;9.38;6.22;;;20.70;99.90;;;;;;5006727;28;20026;-78
2023/08/15 03:42:21;;;;;;;7.43;6.45;;;20.70;99.90;;;;;;5014760;28;20040;-76
2023/08/15 03:44:46;;;;;;;8.20;5.60;;;20.70;99.90;;;;;;5014341;28;20919;-78
2023/08/15 03:47:12;;;;;;;10.45;5.45;;;20.70;99.90;;;;;;5011063;28;20038;-77
2023/08/15 03:49:37;;;;;;;8.95;5.50;;;20.60;99.90;;;;;;5010721;28;20049;-78
2023/08/15 03:52:04;;;;;;;13.65;6.40;;;20.60;99.90;;;;;;5011319;28;20058;-78
2023/08/15 03:54:29;;;;;;;12.38;6.10;;;20.60;99.90;;;;;;5000120;28;20030;-78
2023/08/15 03:56:55;;;;;;;9.60;5.55;;;20.70;99.90;;;;;;5018014;28;20037;-77
2023/08/15 03:59:21;;;;;;;12.75;6.00;;;20.60;99.90;;;;;;4995283;28;20084;-78
2023/08/15 04:01:47;;;;;;;7.07;6.00;;;20.60;99.90;;;;;;4992007;28;20084;-78
2023/08/15 04:04:12;;;;;;;8.98;6.13;;;20.60;99.90;;;;;;4999609;28;20050;-77
2023/08/15 04:06:38;;;;;;;10.00;5.93;;;20.60;99.90;;;;;;5016757;28;20030;-78
2023/08/15 04:09:04;;;;;;;7.60;5.55;;;20.60;99.90;;;;;;5001062;28;20026;-78
2023/08/15 04:11:29;;;;;;;5.85;5.05;;;20.50;99.90;;;;;;5012507;28;20034;-79
2023/08/15 04:13:55;;;;;;;7.43;5.20;;;20.50;99.90;;;;;;4994212;28;20038;-79
2023/08/15 04:16:21;;;;;;;8.35;5.78;;;20.50;99.90;;;;;;5017938;28;20044;-79
2023/08/15 04:18:46;;;;;;;8.27;5.35;;;20.50;99.90;;;;;;5012790;28;20034;-77
2023/08/15 04:21:12;;;;;;;7.63;5.47;;;20.50;99.90;;;;;;5011109;28;20057;-78
2023/08/15 04:23:37;;;;;;;9.15;4.80;;;20.50;99.90;;;;;;4999966;28;20387;-77
2023/08/15 04:26:03;;;;;;;7.80;5.70;;;20.40;99.90;;;;;;4990860;28;20464;-79
2023/08/15 04:28:29;;;;;;;7.18;5.43;;;20.50;99.90;;;;;;4997212;28;20021;-77
2023/08/15 04:30:54;;;;;;;5.75;5.13;;;20.50;99.90;;;;;;5006644;28;20517;-78
2023/08/15 04:33:20;;;;;;;8.25;5.57;;;20.50;99.90;;;;;;5008001;28;20068;-78
2023/08/15 04:35:45;;;;;;;14.05;5.75;;;20.50;99.90;;;;;;5010638;28;20033;-78
2023/08/15 04:38:12;;;;;;;8.57;5.28;;;20.50;99.90;;;;;;5008977;28;20190;-77
2023/08/15 04:40:41;;;;;;;9.55;5.10;;;20.50;99.90;;;;;;5011988;28;20041;-77
2023/08/15 04:43:07;;;;;;;6.43;5.05;;;20.50;99.90;;;;;;5013071;28;20034;-77
2023/08/15 04:45:33;;;;;;;8.02;5.25;;;20.50;99.90;;;;;;5013178;28;20116;-76
2023/08/15 04:48:01;;;;;;;8.45;5.90;;;20.50;99.90;;;;;;4992234;28;20474;-76
2023/08/15 04:50:30;;;;;;;7.88;5.20;;;20.60;99.90;;;;;;5008926;28;20561;-76
2023/08/15 04:52:55;;;;;;;6.72;5.18;;;20.60;99.90;;;;;;4999278;28;20397;-75
2023/08/15 04:55:21;;;;;;;8.55;5.10;;;20.60;99.90;;;;;;5007660;28;20036;-76
2023/08/15 04:57:46;;;;;;;6.90;5.00;;;20.60;99.90;;;;;;4995954;28;20053;-76
2023/08/15 05:00:15;;;;;;;9.10;5.63;;;20.70;99.90;;;;;;5001611;28;20054;-75
2023/08/15 05:02:40;;;;;;;8.35;6.18;;;20.70;99.90;;;;;;4999408;28;20033;-75
2023/08/15 05:05:09;;;;;;;6.93;5.68;;;20.70;99.90;;;;;;4984368;28;20385;-75
2023/08/15 05:07:35;;;;;;;10.15;7.57;;;20.70;99.90;;;;;;5005997;28;20022;-73
2023/08/15 05:10:01;;;;;;;10.13;7.13;;;20.70;99.90;;;;;;4985536;28;20030;-73
2023/08/15 05:12:27;;;;;;;8.27;6.40;;;20.70;99.90;;;;;;5015242;22;20034;-71
2023/08/15 05:14:52;;;;;;;8.18;6.45;;;20.80;99.90;;;;;;5011789;28;20399;-71
2023/08/15 05:17:19;;;;;;;10.00;6.07;;;20.80;99.90;;;;;;5009642;28;20653;-71
2023/08/15 05:19:44;;;;;;;7.28;5.65;;;20.80;99.90;;;;;;4992712;28;20550;-70
2023/08/15 05:22:10;;;;;;;10.70;6.25;;;20.90;99.90;;;;;;5007710;28;20030;-72
2023/08/15 05:24:35;;;;;;;8.27;5.72;;;20.90;99.90;;;;;;4988227;28;20022;-72
2023/08/15 05:27:01;;;;;;;7.25;5.40;;;20.90;99.90;;;;;;4992091;28;20027;-72
2023/08/15 05:29:27;;;;;;;12.80;6.18;;;21.00;99.90;;;;;;4992070;28;20102;-72
2023/08/15 05:31:53;;;;;;;8.57;5.50;;;21.00;99.90;;;;;;4989514;28;20539;-72
2023/08/15 05:34:18;;;;;;;11.02;6.25;;;21.00;99.90;;;;;;5007398;28;20033;-72
2023/08/15 05:36:44;;;;;;;8.73;5.38;;;21.10;99.90;;;;;;4987551;28;20026;-73
2023/08/15 05:39:09;;;;;;;5.55;4.93;;;21.10;99.90;;;;;;4985551;28;20087;-72
2023/08/15 05:41:35;;;;;;;10.75;4.90;;;21.10;99.90;;;;;;4989035;28;20105;-72
2023/08/15 05:44:00;;;;;;;7.85;5.40;;;21.10;99.90;;;;;;4989487;28;20061;-72
2023/08/15 05:46:26;;;;;;;5.82;4.57;;;21.10;99.90;;;;;;4985429;28;20050;-73
2023/08/15 05:48:52;;;;;;;7.47;4.97;;;21.10;99.90;;;;;;4997833;28;20499;-72
2023/08/15 05:51:17;;;;;;;10.07;5.05;;;21.20;99.90;;;;;;5001915;28;20022;-72
2023/08/15 05:53:43;;;;;;;7.63;5.50;;;21.20;99.90;;;;;;4991661;28;20088;-72
2023/08/15 05:56:08;;;;;;;6.68;4.82;;;21.30;99.90;;;;;;4991133;28;20493;-72
2023/08/15 05:58:34;;;;;;;7.85;4.55;;;21.50;99.90;;;;;;4981057;28;20030;-73
2023/08/15 06:01:00;;;;;;;6.97;5.05;;;21.50;99.90;;;;;;4992225;28;20485;-72
2023/08/15 06:03:26;;;;;;;7.22;4.90;;;21.60;99.90;;;;;;4983435;28;20696;-73
2023/08/15 06:05:55;;;;;;;7.43;5.45;;;21.70;99.90;;;;;;4988379;28;20074;-72
2023/08/15 06:08:21;;;;;;;10.85;5.22;;;21.80;99.90;;;;;;4991648;28;20125;-76
2023/08/15 06:10:46;;;;;;;7.15;5.15;;;21.80;99.90;;;;;;4990102;28;20116;-77
2023/08/15 06:13:12;;;;;;;8.13;5.03;;;21.90;99.90;;;;;;4987381;28;21048;-76
2023/08/15 06:15:38;;;;;;;14.32;6.85;;;21.90;99.90;;;;;;4990929;28;20361;-77
2023/08/15 06:18:04;;;;;;;13.27;8.00;;;22.00;99.90;;;;;;4982363;28;20123;-75
2023/08/15 06:20:29;;;;;;;14.32;8.00;;;22.00;99.90;;;;;;4983858;28;20040;-75
2023/08/15 06:22:55;;;;;;;11.20;8.82;;;22.10;99.90;;;;;;4979292;28;20026;-76
2023/08/15 06:25:21;;;;;;;11.68;9.52;;;22.20;99.90;;;;;;4973083;28;20084;-75
2023/08/15 06:27:46;;;;;;;16.23;9.40;;;22.20;99.90;;;;;;4975682;28;20034;-76
2023/08/15 06:30:12;;;;;;;11.48;8.20;;;22.20;99.90;;;;;;4977619;28;20042;-75
2023/08/15 06:32:38;;;;;;;12.68;8.07;;;22.20;99.90;;;;;;4979474;28;20397;-75
2023/08/15 06:35:05;;;;;;;9.40;8.40;;;22.20;99.90;;;;;;4982377;28;20026;-74
2023/08/15 06:37:31;;;;;;;11.05;8.90;;;22.30;99.90;;;;;;4980419;28;20030;-75
2023/08/15 06:39:57;;;;;;;10.93;7.75;;;22.40;99.90;;;;;;4977528;28;20041;-77
2023/08/15 06:42:22;;;;;;;10.85;7.95;;;22.50;99.90;;;;;;4979833;28;20081;-75
2023/08/15 06:44:48;;;;;;;14.68;7.78;;;22.50;99.90;;;;;;4975149;28;20070;-74
2023/08/15 06:47:14;;;;;;;10.10;7.85;;;22.60;99.90;;;;;;4977223;28;20029;-76
2023/08/15 06:49:39;;;;;;;10.82;7.22;;;22.60;99.90;;;;;;4978081;28;20078;-74
2023/08/15 06:52:07;;;;;;;11.65;7.55;;;22.70;99.90;;;;;;4983835;28;20031;-75
2023/08/15 06:54:33;;;;;;;9.25;7.00;;;22.70;99.90;;;;;;4978269;28;20048;-74
2023/08/15 06:57:02;;;;;;;7.88;6.40;;;22.80;99.90;;;;;;4989489;28;20114;-74
2023/08/15 06:59:35;;;;;;;8.70;5.72;;;22.80;99.90;;;;;;4980119;28;20117;-74
2023/08/15 07:02:00;;;;;;;11.57;6.27;;;22.90;99.90;;;;;;4994862;28;20061;-75
2023/08/15 07:04:26;;;;;;;8.48;5.82;;;22.90;99.90;;;;;;4978680;28;20487;-75
2023/08/15 07:06:52;;;;;;;10.15;5.65;;;22.90;99.90;;;;;;4982679;28;20109;-74
2023/08/15 07:09:42;;;;;;;10.25;6.15;;;22.90;99.90;;;;;;4977840;28;20022;-75
2023/08/15 07:12:11;;;;;;;7.07;5.50;;;22.90;99.90;;;;;;4974936;28;20030;-75
2023/08/15 07:14:36;;;;;;;8.88;5.72;;;23.00;99.90;;;;;;4997491;28;20050;-75
2023/08/15 07:17:05;;;;;;;8.70;5.80;;;23.00;99.90;;;;;;4984777;28;20030;-76
2023/08/15 07:19:37;;;;;;;8.23;5.78;;;23.10;99.90;;;;;;4994672;28;20030;-76
2023/08/15 07:22:08;;;;;;;10.95;5.82;;;23.10;99.90;;;;;;4981139;28;20034;-76
2023/08/15 07:24:34;;;;;;;9.73;6.07;;;23.10;99.90;;;;;;4978649;28;20022;-75
2023/08/15 07:27:00;;;;;;;8.05;5.72;;;23.10;99.90;;;;;;4982878;28;20089;-75
2023/08/15 07:29:29;;;;;;;10.00;5.93;;;23.10;99.90;;;;;;4998973;28;20500;-77
2023/08/15 07:31:57;;;;;;;11.57;5.93;;;23.10;99.90;;;;;;4982885;28;20030;-78
2023/08/15 07:34:23;;;;;;;8.40;6.10;;;23.10;99.90;;;;;;4982995;28;20054;-78
2023/08/15 07:36:49;;;;;;;9.50;5.53;;;23.20;99.90;;;;;;4980316;28;20456;-77
2023/08/15 07:39:17;;;;;;;7.35;5.68;;;23.20;99.90;;;;;;4978192;28;20031;-76
2023/08/15 07:41:43;;;;;;;12.27;6.03;;;23.20;99.90;;;;;;4982465;28;20030;-74
2023/08/15 07:44:09;;;;;;;9.30;5.70;;;23.30;99.90;;;;;;4990746;28;20033;-74
2023/08/15 07:46:37;;;;;;;14.43;5.53;;;23.40;99.90;;;;;;4986732;28;20405;-75
2023/08/15 07:49:12;;;;;;;7.28;5.05;;;23.40;99.90;;;;;;4980532;28;20034;-75
2023/08/15 07:51:43;;;;;;;7.95;5.30;;;23.50;99.90;;;;;;4977167;28;20035;-76
2023/08/15 07:54:12;;;;;;;7.90;5.32;;;23.50;99.90;;;;;;4981556;28;20029;-74
2023/08/15 07:56:38;;;;;;;7.60;6.00;;;23.60;99.90;;;;;;4981201;28;20061;-76
2023/08/15 07:59:19;;;;;;;7.95;5.88;;;23.60;99.90;;;;;;4984689;28;20026;-75
2023/08/15 08:01:45;;;;;;;7.20;5.85;;;23.70;99.90;;;;;;4985217;28;20127;-75
2023/08/15 08:04:14;;;;;;;10.55;5.70;;;23.70;99.90;;;;;;4985004;28;20470;-76
2023/08/15 08:06:40;;;;;;;8.43;6.25;;;23.60;99.90;;;;;;4984540;28;20112;-76
2023/08/15 08:09:13;;;;;;;9.02;5.60;;;23.60;99.90;;;;;;4988293;28;20097;-78
2023/08/15 08:11:42;;;;;;;12.13;6.38;;;23.70;99.90;;;;;;4994584;28;20125;-76
2023/08/15 08:14:11;;;;;;;7.88;6.53;;;23.70;99.90;;;;;;4981292;28;20061;-77
2023/08/15 08:16:36;;;;;;;9.45;5.70;;;23.80;99.90;;;;;;4985835;28;20041;-77
2023/08/15 08:19:05;;;;;;;8.57;5.35;;;23.70;99.90;;;;;;4987504;28;20026;-77
2023/08/15 08:21:33;;;;;;;8.00;5.50;;;23.80;99.90;;;;;;4982870;28;20382;-76
2023/08/15 08:24:05;;;;;;;11.77;5.80;;;23.80;99.90;;;;;;4985733;28;20022;-77
2023/08/15 08:26:31;;;;;;;8.82;6.53;;;23.80;99.90;;;;;;4985439;28;20022;-77
2023/08/15 08:28:56;;;;;;;7.38;5.35;;;24.00;99.90;;;;;;4982176;28;20027;-77
2023/08/15 08:31:28;;;;;;;11.88;5.57;;;24.00;99.90;;;;;;4981225;28;20042;-76
2023/08/15 08:33:53;;;;;;;11.55;5.82;;;24.10;99.90;;;;;;4983512;28;20038;-77
2023/08/15 08:36:22;;;;;;;8.38;5.35;;;24.20;99.90;;;;;;4981312;28;20029;-74
2023/08/15 08:38:48;;;;;;;10.02;5.97;;;24.20;99.90;;;;;;4980011;28;20055;-76
2023/08/15 08:41:13;;;;;;;12.38;5.47;;;24.30;99.90;;;;;;4982888;28;20520;-76
2023/08/15 08:43:42;;;;;;;11.43;5.53;;;24.40;99.90;;;;;;4987258;28;20050;-76
2023/08/15 08:46:08;;;;;;;9.57;5.90;;;24.60;99.90;;;;;;4975823;28;20114;-76
2023/08/15 08:48:35;;;;;;;8.60;5.47;;;24.70;99.90;;;;;;4996724;28;20117;-77
2023/08/15 08:51:15;;;;;;;11.93;5.80;;;24.80;99.90;;;;;;4982553;28;20088;-77
2023/08/15 08:53:41;;;;;;;8.00;5.13;;;25.00;99.90;;;;;;4984286;28;20513;-77
2023/08/15 08:56:10;;;;;;;7.22;4.60;;;25.10;99.90;;;;;;4980829;28;20125;-77
2023/08/15 08:58:40;;;;;;;10.57;5.05;;;25.30;99.90;;;;;;4980300;28;20037;-76
2023/08/15 09:01:09;;;;;;;11.82;5.25;;;25.30;99.90;;;;;;4978255;28;20178;-78
2023/08/15 09:03:34;;;;;;;8.73;4.22;;;25.30;99.90;;;;;;4980768;28;20385;-78
2023/08/15 09:06:03;;;;;;;7.45;4.22;;;25.30;99.90;;;;;;4981877;28;20023;-77
2023/08/15 09:08:29;;;;;;;7.97;3.95;;;25.30;99.90;;;;;;4988359;28;20072;-78
2023/08/15 09:10:54;;;;;;;5.97;4.05;;;25.30;99.90;;;;;;4981039;28;20030;-78
2023/08/15 09:13:23;;;;;;;6.30;4.22;;;25.40;99.90;;;;;;4986880;28;20088;-78
2023/08/15 09:16:01;;;;;;;9.25;3.80;;;25.40;99.90;;;;;;4981960;28;20076;-77
2023/08/15 09:18:27;;;;;;;8.35;3.67;;;25.60;99.90;;;;;;4987770;28;20022;-77
2023/08/15 09:21:04;;;;;;;7.70;3.45;;;25.70;99.90;;;;;;4981166;28;20030;-78
2023/08/15 09:23:32;;;;;;;6.18;3.35;;;25.90;99.90;;;;;;4982117;28;20018;-76
2023/08/15 09:26:12;;;;;;;6.45;3.30;;;26.00;99.90;;;;;;4983267;28;20031;-76
2023/08/15 09:28:45;;;;;;;7.28;3.25;;;26.10;99.90;;;;;;4979099;28;20033;-76
2023/08/15 09:31:11;;;;;;;9.95;3.30;;;26.30;99.90;;;;;;4981324;28;20072;-71
2023/08/15 09:33:46;;;;;;;7.20;4.22;;;26.40;99.90;;;;;;4978226;28;20030;-72
2023/08/15 09:36:13;;;;;;;4.68;3.20;;;26.40;99.90;;;;;;4980204;28;20030;-72
2023/08/15 09:38:39;;;;;;;4.60;3.38;;;26.50;99.90;;;;;;4985194;28;20946;-78
2023/08/15 09:41:06;;;;;;;7.65;2.83;;;26.60;99.90;;;;;;4985197;28;20101;-77
2023/08/15 09:43:32;;;;;;;6.55;2.40;;;26.70;99.90;;;;;;4989872;28;20481;-76
2023/08/15 09:46:01;;;;;;;6.20;2.20;;;26.80;99.90;;;;;;4984042;28;20343;-77
2023/08/15 09:48:31;;;;;;;4.63;2.67;;;26.90;99.90;;;;;;4993512;28;20018;-77
2023/08/15 09:50:57;;;;;;;4.38;2.03;;;27.00;99.90;;;;;;4990969;28;20033;-77
2023/08/15 09:53:24;;;;;;;3.92;2.10;;;27.10;99.10;;;;;;4991491;28;20497;-77
2023/08/15 09:55:51;;;;;;;4.10;2.05;;;27.20;96.00;;;;;;5001424;28;20031;-77
2023/08/15 09:58:16;;;;;;;7.20;2.35;;;27.30;95.70;;;;;;4993835;28;20037;-77
2023/08/15 10:00:43;;;;;;;6.97;2.20;;;27.40;95.30;;;;;;4988125;28;20031;-77
2023/08/15 10:03:19;;;;;;;4.10;2.03;;;27.40;95.00;;;;;;4984106;28;20738;-77
2023/08/15 10:05:53;;;;;;;4.30;1.70;;;27.50;94.10;;;;;;4983150;28;20018;-77
2023/08/15 10:08:19;;;;;;;7.45;2.30;;;27.60;93.50;;;;;;4987829;28;20394;-77
2023/08/15 10:10:50;;;;;;;5.97;1.70;;;27.70;93.30;;;;;;4992200;28;20023;-78
2023/08/15 10:13:22;;;;;;;3.90;2.17;;;27.80;92.60;;;;;;4984845;28;20053;-78
2023/08/15 10:15:48;;;;;;;3.42;1.88;;;27.90;92.30;;;;;;4987710;28;20046;-78
2023/08/15 10:18:17;;;;;;;4.30;2.00;;;28.00;92.50;;;;;;5005369;28;20022;-77
2023/08/15 10:20:43;;;;;;;3.33;2.25;;;28.00;92.10;;;;;;4990478;28;20165;-77
2023/08/15 10:23:09;;;;;;;2.90;2.00;;;28.10;92.10;;;;;;4985540;28;20076;-77
2023/08/15 10:25:41;;;;;;;4.88;1.63;;;28.10;91.80;;;;;;4985919;28;20026;-77
2023/08/15 10:28:18;;;;;;;3.28;2.17;;;28.20;91.50;;;;;;4985754;28;20034;-77
2023/08/15 10:30:46;;;;;;;7.03;2.47;;;28.20;91.40;;;;;;4992692;28;20026;-76
2023/08/15 10:33:16;;;;;;;3.67;2.15;;;28.20;91.10;;;;;;4985746;28;20396;-75
2023/08/15 10:35:54;;;;;;;4.88;1.83;;;28.10;90.90;;;;;;4992961;28;20030;-77
2023/08/15 10:38:26;;;;;;;5.35;2.38;;;28.20;90.80;;;;;;4982435;28;20096;-77
2023/08/15 10:41:01;;;;;;;4.03;2.35;;;28.40;90.70;;;;;;4990485;28;20065;-78
2023/08/15 10:43:33;;;;;;;3.40;1.70;;;28.50;90.70;;;;;;4990247;28;20042;-75
2023/08/15 10:46:08;;;;;;;4.05;1.98;;;28.60;90.10;;;;;;4985997;28;20058;-78
2023/08/15 10:48:58;;;;;;;4.70;2.10;;;28.70;90.20;;;;;;4989344;28;20548;-77
2023/08/15 10:51:25;;;;;;;5.43;2.45;;;28.80;89.10;;;;;;5004456;28;20034;-78
2023/08/15 10:53:53;;;;;;;4.57;2.17;;;28.80;88.10;;;;;;4990228;28;20117;-77
2023/08/15 10:56:24;;;;;;;5.18;2.17;;;28.80;87.60;;;;;;4995042;28;20580;-78
2023/08/15 10:58:50;;;;;;;3.50;1.95;;;28.90;87.70;;;;;;4992389;28;20038;-77
2023/08/15 11:01:21;;;;;;;4.18;2.15;;;28.90;87.60;;;;;;4994713;28;21015;-78
2023/08/15 11:03:49;;;;;;;3.38;2.17;;;28.90;87.40;;;;;;4991372;28;20023;-78
2023/08/15 11:06:18;;;;;;;3.08;2.00;;;28.90;87.80;;;;;;4994138;28;20350;-77
2023/08/15 11:08:47;;;;;;;3.95;2.17;;;29.00;88.40;;;;;;4996731;28;20023;-77
2023/08/15 11:11:16;;;;;;;4.90;2.25;;;29.00;88.40;;;;;;4992849;28;20444;-77
2023/08/15 11:13:49;;;;;;;2.85;1.88;;;29.10;86.40;;;;;;4999268;28;20026;-77
2023/08/15 11:16:20;;;;;;;3.63;1.80;;;29.10;86.70;;;;;;5005326;28;20030;-77
2023/08/15 11:18:48;;;;;;;10.80;1.95;;;29.20;85.90;;;;;;4996345;28;20030;-78
2023/08/15 11:21:15;;;;;;;3.90;2.25;;;29.20;84.70;;;;;;5000080;28;20033;-77
2023/08/15 11:23:41;;;;;;;7.07;2.15;;;29.20;84.90;;;;;;5002519;28;20029;-78
2023/08/15 11:26:14;;;;;;;4.15;1.70;;;29.30;84.50;;;;;;5016330;28;20022;-77
2023/08/15 11:28:40;;;;;;;2.47;1.93;;;29.30;84.50;;;;;;5003265;28;20026;-77
2023/08/15 11:31:16;;;;;;;3.28;1.70;;;29.40;84.40;;;;;;4997319;28;20056;-77
2023/08/15 11:33:48;;;;;;;4.50;2.33;;;29.40;82.60;;;;;;5013687;28;20037;-77
2023/08/15 11:36:16;;;;;;;3.78;1.90;;;29.50;82.30;;;;;;4996189;28;20386;-78
2023/08/15 11:38:45;;;;;;;3.80;1.70;;;29.60;82.10;;;;;;4996487;28;20046;-77
2023/08/15 11:41:10;;;;;;;4.78;2.15;;;29.60;82.50;;;;;;4998003;28;20102;-77
2023/08/15 11:43:36;;;;;;;3.97;1.58;;;29.60;81.30;;;;;;4998521;28;20423;-78
2023/08/15 11:46:03;;;;;;;2.78;1.70;;;29.60;81.30;;;;;;4995275;28;20473;-77
2023/08/15 11:48:32;;;;;;;4.90;1.75;;;29.60;81.40;;;;;;4993606;28;20062;-78
2023/08/15 11:51:01;;;;;;;7.28;2.05;;;29.60;81.20;;;;;;4999008;28;20035;-78
2023/08/15 11:53:27;;;;;;;2.78;2.00;;;29.60;80.80;;;;;;5000252;28;20022;-78
2023/08/15 11:55:56;;;;;;;3.83;2.33;;;29.40;80.70;;;;;;4997540;28;20171;-77
2023/08/15 11:58:32;;;;;;;4.00;2.15;;;29.30;81.40;;;;;;5007123;28;20031;-77
2023/08/15 12:01:09;;;;;;;5.90;2.15;;;29.30;82.40;;;;;;4995772;28;20019;-77
2023/08/15 12:03:36;;;;;;;4.28;2.05;;;29.20;82.00;;;;;;4997171;28;20491;-77
2023/08/15 12:06:05;;;;;;;2.83;2.15;;;29.20;82.40;;;;;;4992270;28;20030;-78
2023/08/15 12:08:31;;;;;;;3.70;1.77;;;29.30;82.60;;;;;;4969050;28;20038;-76
2023/08/15 12:11:08;;;;;;;3.00;1.75;;;29.30;82.20;;;;;;5002129;28;20033;-76
2023/08/15 12:13:41;;;;;;;4.43;2.05;;;29.20;81.90;;;;;;4997020;28;20144;-77
2023/08/15 12:16:08;;;;;;;6.47;1.90;;;29.30;81.90;;;;;;4986393;28;20034;-77
2023/08/15 12:18:34;;;;;;;8.27;2.10;;;29.20;81.20;;;;;;4992609;28;20385;-77
2023/08/15 12:21:11;;;;;;;5.40;1.80;;;29.20;81.30;;;;;;4992754;28;20275;-77
2023/08/15 12:23:37;;;;;;;3.20;1.98;;;29.10;80.70;;;;;;4999627;28;20022;-76
2023/08/15 12:26:02;;;;;;;5.82;2.35;;;29.10;80.50;;;;;;4998997;28;20053;-78
2023/08/15 12:28:31;;;;;;;6.47;2.00;;;29.10;80.70;;;;;;5001967;28;20053;-78
2023/08/15 12:30:56;;;;;;;3.58;2.08;;;29.10;80.60;;;;;;4991355;28;20492;-80
2023/08/15 12:33:22;;;;;;;3.22;1.80;;;29.10;80.20;;;;;;4988455;28;20026;-77
2023/08/15 12:35:48;;;;;;;4.43;2.25;;;29.00;80.20;;;;;;4992385;28;20041;-77
2023/08/15 12:38:20;;;;;;;4.93;2.00;;;29.00;80.50;;;;;;4988171;28;20051;-77
2023/08/15 12:40:45;;;;;;;4.10;1.73;;;29.00;80.60;;;;;;4987882;28;20110;-77
2023/08/15 12:43:11;;;;;;;3.42;1.75;;;29.00;81.20;;;;;;4991900;28;20150;-78
2023/08/15 12:45:37;;;;;;;3.85;1.65;;;29.10;79.40;;;;;;4991308;28;20022;-77
2023/08/15 12:48:03;;;;;;;2.42;1.88;;;29.10;79.10;;;;;;4992512;28;20031;-77